Time;durP1;ratioP1;P1;durP2;ratioP2;P2;SDS_P1;SDS_P2;PMS_P1;PMS_P2;Temp;Humidity;BMP_temperature;BMP_pressure;BME280_temperature;BME280_humidity;BME280_pressure;Samples;Min_cycle;Max_cycle;Signal;HPM_P1;HPM_P2
2022/10/02 00:02:32;;;;;;;11.25;2.20;;;11.50;99.90;;;;;;5117160;27;20035;-63
2022/10/02 00:05:04;;;;;;;13.30;2.20;;;11.50;99.90;;;;;;5118441;27;20546;-63
2022/10/02 00:08:13;;;;;;;14.88;2.72;;;11.50;99.90;;;;;;5132869;27;20110;-63
2022/10/02 00:10:52;;;;;;;12.60;2.55;;;11.50;99.90;;;;;;5048464;28;20045;-62
2022/10/02 00:13:30;;;;;;;9.45;2.17;;;11.60;99.90;;;;;;4997619;28;20053;-63
2022/10/02 00:15:55;;;;;;;13.63;2.58;;;11.60;99.90;;;;;;5077417;27;20050;-62
2022/10/02 00:18:41;;;;;;;14.45;2.33;;;11.50;99.90;;;;;;5078638;27;20435;-62
2022/10/02 00:21:19;;;;;;;15.90;2.55;;;11.60;99.90;;;;;;5130786;27;20586;-62
2022/10/02 00:23:48;;;;;;;12.70;2.55;;;11.60;99.90;;;;;;5151681;27;20038;-62
2022/10/02 00:26:30;;;;;;;9.93;1.95;;;11.50;99.90;;;;;;5109363;27;20077;-62
2022/10/02 00:29:07;;;;;;;13.77;2.53;;;11.50;99.90;;;;;;5094962;27;20043;-63
2022/10/02 00:31:55;;;;;;;15.77;2.58;;;11.60;99.90;;;;;;5133248;27;20038;-63
2022/10/02 00:34:43;;;;;;;13.40;2.40;;;11.60;99.90;;;;;;5147787;27;20090;-62
2022/10/02 00:37:55;;;;;;;7.22;1.85;;;11.60;99.90;;;;;;5134194;27;20100;-62
2022/10/02 00:40:29;;;;;;;10.18;2.30;;;11.60;99.90;;;;;;5046653;28;20823;-62
2022/10/02 00:43:13;;;;;;;9.48;2.20;;;11.60;99.90;;;;;;5095833;27;20518;-62
2022/10/02 00:45:55;;;;;;;12.00;2.53;;;11.60;99.90;;;;;;5116003;27;20556;-63
2022/10/02 00:48:41;;;;;;;7.97;1.90;;;11.70;99.90;;;;;;5117710;27;20369;-63
2022/10/02 00:51:35;;;;;;;13.10;2.58;;;11.70;99.90;;;;;;5113061;27;20034;-63
2022/10/02 00:54:06;;;;;;;14.68;2.42;;;11.70;99.90;;;;;;5151226;27;20047;-62
2022/10/02 00:56:52;;;;;;;11.45;2.00;;;11.60;99.90;;;;;;5150870;27;20095;-62
2022/10/02 00:59:55;;;;;;;7.35;2.15;;;11.60;99.90;;;;;;5094617;27;20031;-62
2022/10/02 01:02:42;;;;;;;9.80;2.08;;;11.70;99.90;;;;;;5145975;27;20580;-62
2022/10/02 01:05:09;;;;;;;11.65;2.17;;;11.70;99.90;;;;;;5113826;27;20047;-63
2022/10/02 01:07:39;;;;;;;15.85;2.10;;;11.70;99.90;;;;;;5095271;27;20051;-63
2022/10/02 01:10:06;;;;;;;8.65;2.10;;;11.60;99.90;;;;;;5110052;27;20399;-62
2022/10/02 01:12:31;;;;;;;11.13;2.28;;;11.70;99.90;;;;;;5094453;27;20100;-62
2022/10/02 01:14:57;;;;;;;9.85;2.08;;;11.70;99.90;;;;;;5119521;27;20050;-63
2022/10/02 01:17:27;;;;;;;12.20;1.92;;;11.70;99.90;;;;;;5132318;27;20053;-63
2022/10/02 01:19:53;;;;;;;16.10;2.20;;;11.70;99.90;;;;;;5132248;27;20337;-63
2022/10/02 01:22:28;;;;;;;9.43;2.22;;;11.70;99.90;;;;;;5115794;27;20447;-62
2022/10/02 01:24:54;;;;;;;9.52;2.13;;;11.60;99.90;;;;;;5128049;27;20076;-62
2022/10/02 01:27:20;;;;;;;10.60;3.00;;;11.60;99.90;;;;;;5111140;27;20054;-62
2022/10/02 01:29:47;;;;;;;11.57;3.13;;;11.60;99.90;;;;;;5124277;27;20043;-62
2022/10/02 01:32:17;;;;;;;11.85;2.72;;;11.60;99.90;;;;;;5112968;27;20054;-62
2022/10/02 01:34:44;;;;;;;11.05;2.35;;;11.60;99.90;;;;;;5114053;27;20053;-63
2022/10/02 01:37:10;;;;;;;11.27;2.33;;;11.70;99.90;;;;;;5132691;27;20043;-62
2022/10/02 01:39:36;;;;;;;10.98;2.35;;;11.70;99.90;;;;;;5114499;27;20146;-62
2022/10/02 01:42:01;;;;;;;15.32;2.33;;;11.70;99.90;;;;;;5147716;27;20051;-63
2022/10/02 01:44:27;;;;;;;7.78;1.67;;;11.70;99.90;;;;;;5115188;27;20047;-63
2022/10/02 01:47:31;;;;;;;13.55;1.83;;;11.60;99.90;;;;;;5132180;27;20214;-62
2022/10/02 01:50:11;;;;;;;7.10;1.52;;;11.70;99.90;;;;;;5052717;27;20142;-63
2022/10/02 01:52:52;;;;;;;11.18;2.85;;;11.70;99.90;;;;;;5132412;27;20356;-62
2022/10/02 01:55:26;;;;;;;11.68;2.28;;;11.60;99.90;;;;;;5112980;27;20389;-63
2022/10/02 01:58:16;;;;;;;7.88;1.95;;;11.60;99.90;;;;;;5122693;27;20043;-63
2022/10/02 02:00:49;;;;;;;10.88;2.53;;;11.60;99.90;;;;;;5122247;27;20043;-63
2022/10/02 02:03:28;;;;;;;13.65;2.17;;;11.60;99.90;;;;;;5094612;27;20042;-63
2022/10/02 02:06:19;;;;;;;11.15;2.10;;;11.70;99.90;;;;;;5125178;27;20041;-64
2022/10/02 02:08:49;;;;;;;10.77;1.92;;;11.60;99.90;;;;;;5115929;27;20030;-63
2022/10/02 02:11:17;;;;;;;13.50;3.03;;;11.50;99.90;;;;;;5136368;27;20451;-63
2022/10/02 02:13:47;;;;;;;12.27;2.25;;;11.50;99.90;;;;;;5129708;27;20057;-63
2022/10/02 02:16:40;;;;;;;9.02;1.90;;;11.50;99.90;;;;;;5129600;27;20554;-62
2022/10/02 02:19:06;;;;;;;11.55;1.90;;;11.40;99.90;;;;;;5090156;27;20038;-62
2022/10/02 02:21:34;;;;;;;7.88;1.63;;;11.40;99.90;;;;;;5143810;27;20217;-62
2022/10/02 02:24:10;;;;;;;6.30;1.90;;;11.40;99.90;;;;;;5126448;27;20098;-62
2022/10/02 02:26:35;;;;;;;5.53;1.80;;;11.40;99.90;;;;;;5128192;27;20098;-63
2022/10/02 02:29:04;;;;;;;7.57;2.00;;;11.40;99.90;;;;;;5136689;27;20050;-62
2022/10/02 02:31:34;;;;;;;14.00;2.75;;;11.40;99.90;;;;;;5118413;27;20042;-63
2022/10/02 02:34:02;;;;;;;14.40;2.67;;;11.40;99.90;;;;;;5133955;27;20050;-62
2022/10/02 02:36:37;;;;;;;10.05;2.33;;;11.40;99.90;;;;;;5115035;27;20070;-62
2022/10/02 02:39:07;;;;;;;9.48;2.75;;;11.30;99.90;;;;;;5129407;27;20042;-62
2022/10/02 02:41:40;;;;;;;10.70;2.28;;;11.30;99.90;;;;;;5092897;27;20394;-62
2022/10/02 02:44:10;;;;;;;8.95;2.45;;;11.30;99.90;;;;;;5134703;27;20154;-62
2022/10/02 02:47:03;;;;;;;13.13;2.38;;;11.30;99.90;;;;;;5131341;27;20292;-62
2022/10/02 02:50:10;;;;;;;9.85;2.17;;;11.20;99.90;;;;;;5101165;27;20089;-62
2022/10/02 02:52:46;;;;;;;10.70;2.63;;;11.10;99.90;;;;;;5137765;27;20081;-63
2022/10/02 02:55:25;;;;;;;12.38;3.17;;;11.10;99.90;;;;;;5113205;27;20297;-63
2022/10/02 02:58:15;;;;;;;7.90;2.70;;;11.10;99.90;;;;;;5132979;27;20046;-63
2022/10/02 03:00:41;;;;;;;13.65;2.53;;;11.10;99.90;;;;;;5137798;27;20043;-62
2022/10/02 03:03:06;;;;;;;10.55;2.85;;;11.10;99.90;;;;;;5090632;27;20039;-61
2022/10/02 03:05:32;;;;;;;10.13;2.83;;;11.10;99.90;;;;;;5107517;27;20122;-62
2022/10/02 03:08:03;;;;;;;16.05;3.40;;;11.20;99.90;;;;;;5097942;27;20119;-63
2022/10/02 03:10:38;;;;;;;13.45;3.15;;;11.20;99.90;;;;;;5125137;27;20034;-62
2022/10/02 03:13:22;;;;;;;14.15;3.40;;;11.20;99.90;;;;;;5135330;27;20043;-63
2022/10/02 03:16:12;;;;;;;13.27;3.25;;;11.20;99.90;;;;;;5097901;27;20392;-62
2022/10/02 03:18:51;;;;;;;16.42;3.53;;;11.20;99.90;;;;;;5119179;27;20063;-62
2022/10/02 03:21:28;;;;;;;17.27;4.07;;;11.20;99.90;;;;;;5118969;27;20038;-62
2022/10/02 03:24:09;;;;;;;12.50;3.83;;;11.20;99.90;;;;;;5098468;27;20374;-62
2022/10/02 03:26:45;;;;;;;15.60;3.55;;;11.20;99.90;;;;;;5128548;27;20548;-62
2022/10/02 03:29:15;;;;;;;20.90;5.03;;;11.20;99.90;;;;;;5128941;27;20051;-62
2022/10/02 03:31:41;;;;;;;13.85;4.50;;;11.30;99.90;;;;;;5132448;27;20050;-63
2022/10/02 03:34:07;;;;;;;15.25;4.25;;;11.20;99.90;;;;;;5117837;27;20070;-62
2022/10/02 03:36:32;;;;;;;19.98;4.22;;;11.30;99.90;;;;;;5106723;27;20467;-64
2022/10/02 03:39:00;;;;;;;17.73;4.35;;;11.30;99.90;;;;;;5106928;27;20370;-62
2022/10/02 03:41:25;;;;;;;18.77;4.90;;;11.30;99.90;;;;;;5087259;27;20038;-63
2022/10/02 03:43:51;;;;;;;18.55;5.18;;;11.30;99.90;;;;;;5099294;27;20078;-62
2022/10/02 03:46:17;;;;;;;22.23;5.00;;;11.30;99.90;;;;;;5117891;27;20043;-63
2022/10/02 03:48:42;;;;;;;18.77;4.57;;;11.30;99.90;;;;;;5099110;27;20078;-62
2022/10/02 03:51:08;;;;;;;15.80;4.65;;;11.30;99.90;;;;;;5115666;27;20495;-62
2022/10/02 03:53:34;;;;;;;18.98;5.30;;;11.40;99.90;;;;;;5115598;27;20050;-63
2022/10/02 03:56:12;;;;;;;18.55;4.90;;;11.40;99.90;;;;;;5133725;27;20586;-63
2022/10/02 03:58:39;;;;;;;;;;;11.40;99.90;;;;;;5128554;27;20697;-62
2022/10/02 04:01:18;;;;;;;13.48;4.53;;;11.40;99.90;;;;;;5130874;27;20340;-62
2022/10/02 04:03:53;;;;;;;23.50;5.70;;;11.40;99.90;;;;;;5130386;27;20118;-64
2022/10/02 04:06:27;;;;;;;16.20;4.68;;;11.40;99.90;;;;;;5096882;27;20863;-62
2022/10/02 04:09:01;;;;;;;22.02;4.88;;;11.30;99.90;;;;;;5107738;27;20083;-62
2022/10/02 04:11:32;;;;;;;18.17;5.38;;;11.40;99.90;;;;;;5132454;27;20047;-62
2022/10/02 04:14:26;;;;;;;23.30;6.22;;;11.40;99.90;;;;;;5126964;27;20047;-62
2022/10/02 04:17:02;;;;;;;25.70;5.57;;;11.40;99.90;;;;;;5116248;27;20053;-62
2022/10/02 04:19:40;;;;;;;19.63;4.88;;;11.50;99.90;;;;;;5132917;27;20050;-62
2022/10/02 04:22:25;;;;;;;15.93;5.40;;;11.50;99.90;;;;;;5110522;27;20502;-62
2022/10/02 04:24:53;;;;;;;21.42;5.78;;;11.50;99.90;;;;;;5151682;27;20047;-62
2022/10/02 04:27:34;;;;;;;20.42;5.72;;;11.50;99.90;;;;;;5117648;27;20046;-63
2022/10/02 04:30:18;;;;;;;24.08;5.90;;;11.50;99.90;;;;;;5144813;27;20057;-62
2022/10/02 04:33:04;;;;;;;20.08;5.55;;;11.60;99.90;;;;;;5087885;27;20051;-62
2022/10/02 04:35:37;;;;;;;21.92;6.53;;;11.60;99.90;;;;;;5113153;27;20051;-63
2022/10/02 04:38:18;;;;;;;16.40;5.68;;;11.60;99.90;;;;;;5110420;27;20084;-63
2022/10/02 04:40:53;;;;;;;18.83;5.97;;;11.60;99.90;;;;;;5151687;27;20046;-62
2022/10/02 04:43:33;;;;;;;23.20;6.22;;;11.70;99.90;;;;;;5148191;27;20486;-62
2022/10/02 04:46:18;;;;;;;24.08;6.30;;;11.70;99.90;;;;;;5133657;27;20125;-62
2022/10/02 04:48:58;;;;;;;20.05;6.80;;;11.70;99.90;;;;;;5146773;27;20448;-62
2022/10/02 04:51:54;;;;;;;24.35;7.90;;;11.70;99.90;;;;;;5120009;27;20138;-63
2022/10/02 04:54:43;;;;;;;21.63;6.80;;;11.70;99.90;;;;;;5145353;27;20649;-62
2022/10/02 04:57:36;;;;;;;18.65;6.78;;;11.80;99.90;;;;;;5143284;27;20054;-62
2022/10/02 05:00:10;;;;;;;20.33;7.38;;;11.80;99.90;;;;;;5151570;27;20039;-64
2022/10/02 05:02:54;;;;;;;21.52;8.30;;;11.80;99.90;;;;;;5131261;27;20050;-62
2022/10/02 05:05:57;;;;;;;16.58;7.10;;;11.80;99.90;;;;;;5144092;27;20651;-62
2022/10/02 05:09:05;;;;;;;24.83;7.82;;;11.80;99.90;;;;;;5130225;27;20047;-62
2022/10/02 05:11:37;;;;;;;;;;;11.70;99.90;;;;;;5029205;28;20048;-62
2022/10/02 05:14:41;;;;;;;24.90;8.32;;;11.80;99.90;;;;;;5046246;28;19927;-62
2022/10/02 05:17:22;;;;;;;26.33;8.00;;;11.70;99.90;;;;;;5105253;27;20537;-62
2022/10/02 05:20:23;;;;;;;23.85;8.38;;;11.70;99.90;;;;;;5148326;27;20039;-64
2022/10/02 05:23:03;;;;;;;28.75;9.27;;;11.70;99.90;;;;;;5083454;27;20047;-64
2022/10/02 05:25:57;;;;;;;25.23;9.27;;;11.70;99.90;;;;;;5112907;27;20539;-64
2022/10/02 05:28:52;;;;;;;29.40;9.20;;;11.80;99.90;;;;;;5100978;27;20047;-64
2022/10/02 05:31:21;;;;;;;26.45;9.10;;;11.80;99.90;;;;;;5117551;27;20076;-65
2022/10/02 05:34:08;;;;;;;25.05;9.93;;;11.80;99.90;;;;;;5132286;27;20050;-64
2022/10/02 05:36:53;;;;;;;26.75;9.57;;;11.80;99.90;;;;;;5107529;27;20046;-62
2022/10/02 05:39:42;;;;;;;23.33;9.77;;;11.80;99.90;;;;;;5148985;27;20048;-62
2022/10/02 05:42:14;;;;;;;26.10;10.30;;;11.80;99.90;;;;;;5092725;27;20049;-63
2022/10/02 05:44:46;;;;;;;29.13;11.02;;;11.80;99.90;;;;;;5131193;27;20043;-63
2022/10/02 05:47:16;;;;;;;25.05;9.57;;;11.80;99.90;;;;;;5081561;27;20051;-62
2022/10/02 05:50:11;;;;;;;27.58;10.02;;;11.80;99.90;;;;;;5143468;27;20057;-62
2022/10/02 05:52:41;;;;;;;29.77;11.50;;;11.80;99.90;;;;;;5129478;27;20068;-62
2022/10/02 05:55:13;;;;;;;26.60;10.45;;;11.80;99.90;;;;;;5096211;27;20058;-62
2022/10/02 05:57:53;;;;;;;36.80;12.23;;;11.80;99.90;;;;;;5146786;27;20043;-63
2022/10/02 06:00:28;;;;;;;32.63;11.57;;;11.80;99.90;;;;;;5099148;27;20114;-63
2022/10/02 06:03:39;;;;;;;28.98;11.88;;;11.80;99.90;;;;;;5124099;27;20072;-62
2022/10/02 06:06:15;;;;;;;32.35;11.40;;;11.80;99.90;;;;;;5043488;28;20049;-63
2022/10/02 06:08:57;;;;;;;30.33;10.48;;;11.80;99.90;;;;;;5104805;28;20047;-62
2022/10/02 06:11:36;;;;;;;31.83;12.57;;;11.80;99.90;;;;;;5078275;28;20491;-62
2022/10/02 06:14:03;;;;;;;27.40;11.73;;;11.80;99.90;;;;;;5123012;27;20098;-62
2022/10/02 06:16:34;;;;;;;25.73;11.40;;;11.80;99.90;;;;;;5149103;27;20436;-63
2022/10/02 06:19:11;;;;;;;26.77;11.93;;;11.80;99.90;;;;;;5125570;27;20049;-63
2022/10/02 06:21:40;;;;;;;22.52;12.05;;;11.80;99.90;;;;;;5108651;27;20043;-62
2022/10/02 06:24:11;;;;;;;27.30;12.18;;;11.80;99.90;;;;;;5123039;27;20077;-63
2022/10/02 06:26:39;;;;;;;28.30;11.95;;;11.80;99.90;;;;;;5129002;27;20051;-63
2022/10/02 06:29:27;;;;;;;27.60;12.05;;;11.80;99.90;;;;;;5113860;27;20462;-63
2022/10/02 06:32:02;;;;;;;29.38;12.30;;;11.80;99.90;;;;;;5131753;27;20484;-63
2022/10/02 06:34:28;;;;;;;29.08;11.80;;;11.80;99.90;;;;;;5108695;28;20058;-63
2022/10/02 06:37:09;;;;;;;24.65;10.68;;;11.80;99.90;;;;;;5098066;27;20791;-63
2022/10/02 06:39:47;;;;;;;27.90;11.40;;;11.80;99.90;;;;;;5150257;27;20045;-62
2022/10/02 06:42:27;;;;;;;30.58;11.43;;;11.80;99.90;;;;;;5112062;27;20043;-62
2022/10/02 06:45:34;;;;;;;23.27;9.45;;;11.70;99.90;;;;;;5128039;27;20047;-62
2022/10/02 06:48:04;;;;;;;30.63;11.45;;;11.80;99.90;;;;;;5028189;28;20187;-62
2022/10/02 06:51:04;;;;;;;22.75;10.15;;;11.80;99.90;;;;;;5042156;28;20040;-62
2022/10/02 06:53:51;;;;;;;29.02;9.60;;;11.80;99.90;;;;;;5084736;27;20387;-62
2022/10/02 06:57:04;;;;;;;25.38;10.02;;;11.80;99.90;;;;;;5146133;27;20042;-62
2022/10/02 06:59:42;;;;;;;28.50;10.55;;;11.80;99.90;;;;;;5086543;27;20107;-63
2022/10/02 07:02:27;;;;;;;25.08;10.10;;;11.90;99.90;;;;;;5083024;27;20154;-63
2022/10/02 07:05:35;;;;;;;21.63;9.88;;;11.90;99.90;;;;;;5098984;27;20138;-62
2022/10/02 07:08:42;;;;;;;23.80;9.38;;;12.00;99.90;;;;;;5120958;27;20059;-62
2022/10/02 07:11:17;;;;;;;23.83;9.65;;;12.00;99.90;;;;;;5126596;27;20058;-62
2022/10/02 07:13:57;;;;;;;23.15;9.23;;;12.10;99.90;;;;;;5148882;27;20048;-63
2022/10/02 07:16:31;;;;;;;27.10;9.50;;;12.10;99.90;;;;;;5128896;27;20045;-63
2022/10/02 07:19:15;;;;;;;27.50;8.45;;;12.20;99.90;;;;;;5115900;27;20071;-63
2022/10/02 07:22:00;;;;;;;23.48;8.63;;;12.20;99.90;;;;;;5142521;27;20118;-63
2022/10/02 07:24:32;;;;;;;24.25;9.70;;;12.20;99.90;;;;;;5109156;27;20039;-62
2022/10/02 07:27:31;;;;;;;25.45;8.50;;;12.30;99.90;;;;;;5126181;27;20122;-62
2022/10/02 07:30:03;;;;;;;22.10;9.75;;;12.30;99.90;;;;;;5137998;27;20046;-63
2022/10/02 07:32:47;;;;;;;19.42;9.60;;;12.40;99.90;;;;;;5152455;27;20150;-62
2022/10/02 07:35:31;;;;;;;21.70;8.80;;;12.40;99.90;;;;;;5146152;27;20050;-63
2022/10/02 07:38:16;;;;;;;23.67;9.75;;;12.40;99.90;;;;;;5136744;27;20038;-62
2022/10/02 07:40:47;;;;;;;24.23;9.45;;;12.50;99.90;;;;;;5114073;27;20039;-63
2022/10/02 07:43:34;;;;;;;24.02;9.88;;;12.50;99.90;;;;;;5152849;27;20039;-62
2022/10/02 07:46:18;;;;;;;26.05;10.40;;;12.60;99.90;;;;;;5152560;27;20085;-62
2022/10/02 07:48:52;;;;;;;23.67;9.70;;;12.60;99.90;;;;;;5152497;27;20039;-63
2022/10/02 07:51:48;;;;;;;27.50;10.40;;;12.60;99.90;;;;;;5146893;27;20348;-62
2022/10/02 07:54:33;;;;;;;27.15;9.55;;;12.70;99.90;;;;;;5123536;27;20428;-62
2022/10/02 07:57:02;;;;;;;19.42;8.88;;;12.80;99.90;;;;;;5152693;27;20070;-63
2022/10/02 07:59:30;;;;;;;21.98;8.27;;;12.90;99.90;;;;;;5115750;27;20149;-62
2022/10/02 08:01:56;;;;;;;18.48;7.93;;;12.90;99.90;;;;;;5117409;27;20047;-62
2022/10/02 08:04:29;;;;;;;24.02;8.88;;;13.00;99.90;;;;;;5116004;27;20428;-62
2022/10/02 08:07:02;;;;;;;20.75;7.95;;;13.00;99.90;;;;;;5103022;27;20867;-62
2022/10/02 08:09:36;;;;;;;26.88;7.90;;;13.10;99.90;;;;;;5096897;27;20043;-62
2022/10/02 08:12:10;;;;;;;20.10;7.53;;;13.10;99.90;;;;;;5127995;27;20058;-62
2022/10/02 08:14:40;;;;;;;21.90;7.38;;;13.10;99.90;;;;;;5129367;27;20050;-63
2022/10/02 08:17:34;;;;;;;18.35;7.20;;;13.20;99.90;;;;;;5114575;27;20038;-62
2022/10/02 08:20:26;;;;;;;17.67;6.50;;;13.20;99.90;;;;;;5151257;27;20050;-63
2022/10/02 08:23:05;;;;;;;17.20;7.43;;;13.20;99.90;;;;;;5136507;27;20053;-63
2022/10/02 08:25:36;;;;;;;23.08;7.97;;;13.30;99.90;;;;;;5134204;27;20046;-64
2022/10/02 08:28:30;;;;;;;16.83;7.00;;;13.40;99.90;;;;;;5090539;27;20046;-63
2022/10/02 08:30:56;;;;;;;15.82;7.07;;;13.40;99.90;;;;;;5095798;27;20439;-62
2022/10/02 08:33:24;;;;;;;20.50;7.07;;;13.50;99.90;;;;;;5116522;27;20448;-63
2022/10/02 08:36:01;;;;;;;17.90;7.33;;;13.50;99.90;;;;;;5122142;27;20100;-62
2022/10/02 08:38:38;;;;;;;21.55;7.03;;;13.50;99.90;;;;;;5113664;27;20073;-63
2022/10/02 08:41:17;;;;;;;18.58;7.15;;;13.50;99.90;;;;;;5120313;27;20038;-63
2022/10/02 08:44:20;;;;;;;23.85;7.80;;;13.50;99.90;;;;;;5127642;27;20126;-62
2022/10/02 08:46:55;;;;;;;22.52;7.00;;;13.50;99.90;;;;;;5133234;27;20130;-63
2022/10/02 08:49:36;;;;;;;16.75;7.82;;;13.60;99.90;;;;;;5109960;27;20046;-64
2022/10/02 08:52:17;;;;;;;16.35;6.85;;;13.60;99.90;;;;;;5147856;27;20084;-63
2022/10/02 08:54:45;;;;;;;20.83;7.20;;;13.70;99.90;;;;;;5096471;27;20086;-63
2022/10/02 08:57:30;;;;;;;24.17;7.88;;;13.80;99.90;;;;;;5148108;27;20412;-63
2022/10/02 09:00:36;;;;;;;21.25;7.60;;;13.80;99.90;;;;;;5133243;27;20104;-62
2022/10/02 09:03:37;;;;;;;19.35;7.78;;;13.80;99.90;;;;;;5132690;27;20050;-62
2022/10/02 09:06:14;;;;;;;19.45;7.60;;;13.90;99.90;;;;;;5125291;27;20054;-63
2022/10/02 09:08:54;;;;;;;24.27;7.00;;;14.00;99.90;;;;;;5123408;27;20457;-63
2022/10/02 09:11:49;;;;;;;18.38;6.68;;;14.10;99.90;;;;;;5122054;27;20049;-64
2022/10/02 09:14:27;;;;;;;18.23;7.05;;;14.30;99.90;;;;;;5116486;27;20490;-62
2022/10/02 09:17:12;;;;;;;25.90;8.25;;;14.30;99.90;;;;;;5139577;27;20455;-62
2022/10/02 09:19:56;;;;;;;22.45;5.57;;;14.30;99.90;;;;;;5111490;27;20051;-63
2022/10/02 09:22:33;;;;;;;15.18;5.88;;;14.40;99.90;;;;;;5132726;27;20047;-63
2022/10/02 09:25:08;;;;;;;18.83;5.55;;;14.30;99.90;;;;;;5127063;27;20053;-62
2022/10/02 09:28:21;;;;;;;19.73;6.00;;;14.30;99.90;;;;;;5126137;27;20138;-66
2022/10/02 09:31:26;;;;;;;16.48;5.30;;;14.50;99.90;;;;;;5081181;27;20043;-65
2022/10/02 09:33:57;;;;;;;15.93;5.10;;;14.60;99.90;;;;;;5074512;27;20456;-65
2022/10/02 09:36:44;;;;;;;18.75;4.95;;;14.80;99.90;;;;;;5122019;27;20054;-67
2022/10/02 09:39:28;;;;;;;13.77;5.05;;;15.00;99.90;;;;;;5139152;27;20083;-67
2022/10/02 09:42:43;;;;;;;17.33;4.95;;;14.90;99.90;;;;;;5139655;27;20050;-67
2022/10/02 09:45:26;;;;;;;13.80;4.60;;;15.00;99.90;;;;;;5013775;28;20045;-66
2022/10/02 09:48:29;;;;;;;18.20;4.57;;;14.80;99.90;;;;;;5101590;27;20126;-65
2022/10/02 09:50:57;;;;;;;12.30;3.65;;;14.80;99.90;;;;;;5128830;27;20382;-67
2022/10/02 09:53:43;;;;;;;;;;;14.80;99.90;;;;;;5116391;27;20042;-66
2022/10/02 09:56:33;;;;;;;15.20;3.30;;;14.80;99.90;;;;;;5143332;27;20348;-66
2022/10/02 09:59:17;;;;;;;15.60;3.75;;;14.80;99.10;;;;;;5122266;27;20047;-66
2022/10/02 10:02:11;;;;;;;12.98;3.38;;;14.90;99.40;;;;;;5150686;27;20057;-66
2022/10/02 10:04:45;;;;;;;16.60;3.00;;;15.00;99.50;;;;;;5144393;27;20223;-66
2022/10/02 10:07:15;;;;;;;15.65;3.58;;;15.20;99.60;;;;;;5146830;27;20077;-68
2022/10/02 10:10:11;;;;;;;14.77;3.47;;;15.40;99.70;;;;;;5115437;27;20058;-67
2022/10/02 10:13:05;;;;;;;15.85;3.08;;;15.50;97.30;;;;;;5097657;27;20047;-67
2022/10/02 10:15:36;;;;;;;16.50;2.58;;;15.50;97.40;;;;;;5143555;27;20115;-66
2022/10/02 10:18:25;;;;;;;13.68;2.95;;;15.60;96.90;;;;;;5122354;27;20039;-67
2022/10/02 10:21:13;;;;;;;12.38;3.22;;;15.80;96.60;;;;;;5114786;27;20038;-66
2022/10/02 10:23:49;;;;;;;10.82;2.03;;;15.90;96.00;;;;;;5141758;27;20052;-67
2022/10/02 10:26:36;;;;;;;9.77;2.17;;;15.90;95.10;;;;;;5149496;27;20183;-70
2022/10/02 10:29:33;;;;;;;13.43;2.83;;;16.10;94.80;;;;;;5135026;27;20038;-69
2022/10/02 10:32:20;;;;;;;14.10;3.05;;;16.10;94.40;;;;;;5128453;27;20486;-69
2022/10/02 10:35:16;;;;;;;10.88;2.85;;;16.30;93.80;;;;;;5110497;27;20511;-73
2022/10/02 10:38:31;;;;;;;7.05;2.20;;;16.30;93.90;;;;;;5132727;27;20064;-68
2022/10/02 10:41:15;;;;;;;10.52;2.63;;;16.70;94.40;;;;;;5108625;27;20035;-68
2022/10/02 10:43:55;;;;;;;9.68;2.65;;;17.10;90.50;;;;;;5127562;27;20078;-69
2022/10/02 10:46:57;;;;;;;10.63;3.05;;;17.30;91.30;;;;;;5132827;27;20080;-68
2022/10/02 10:49:34;;;;;;;10.68;3.08;;;17.60;89.70;;;;;;5137882;27;20046;-69
2022/10/02 10:52:29;;;;;;;8.93;2.10;;;18.90;87.60;;;;;;5103406;27;20572;-68
2022/10/02 10:55:18;;;;;;;7.60;2.58;;;19.60;81.50;;;;;;5140965;27;20059;-69
2022/10/02 10:58:08;;;;;;;14.30;2.45;;;19.90;75.50;;;;;;5118033;27;20044;-69
2022/10/02 11:01:06;;;;;;;10.25;2.30;;;20.00;75.20;;;;;;5109505;27;20084;-69
2022/10/02 11:04:05;;;;;;;10.25;2.20;;;19.40;79.20;;;;;;5124187;27;20062;-69
2022/10/02 11:07:01;;;;;;;11.85;2.20;;;18.00;82.30;;;;;;5148602;27;20049;-69
2022/10/02 11:09:36;;;;;;;10.95;2.78;;;18.30;82.80;;;;;;5144531;27;20088;-71
2022/10/02 11:12:02;;;;;;;11.80;2.78;;;18.90;77.20;;;;;;5144588;27;20471;-70
2022/10/02 11:14:46;;;;;;;11.02;2.08;;;20.00;74.30;;;;;;5130922;27;20049;-67
2022/10/02 11:17:37;;;;;;;8.45;2.25;;;20.80;70.30;;;;;;5095647;27;20183;-66
2022/10/02 11:20:17;;;;;;;9.00;1.77;;;21.10;67.50;;;;;;5130721;27;20054;-65
2022/10/02 11:23:17;;;;;;;8.95;2.40;;;19.30;73.80;;;;;;5115900;27;20122;-66
2022/10/02 11:25:55;;;;;;;9.27;2.38;;;17.90;82.10;;;;;;5107766;27;20046;-67
2022/10/02 11:28:50;;;;;;;8.73;2.08;;;20.60;71.40;;;;;;5131064;27;20051;-68
2022/10/02 11:31:49;;;;;;;5.88;1.95;;;22.70;64.60;;;;;;5139244;27;20075;-68
2022/10/02 11:34:49;;;;;;;10.07;2.28;;;21.80;66.60;;;;;;5108337;27;20085;-67
2022/10/02 11:37:24;;;;;;;9.85;2.33;;;20.90;69.70;;;;;;5148635;27;20393;-66
2022/10/02 11:40:02;;;;;;;10.80;2.50;;;21.00;69.10;;;;;;5148301;27;20487;-68
2022/10/02 11:42:47;;;;;;;8.27;2.10;;;21.80;69.70;;;;;;5144599;27;20180;-66
2022/10/02 11:45:35;;;;;;;8.55;2.42;;;21.50;67.10;;;;;;5097521;27;20047;-66
2022/10/02 11:48:01;;;;;;;8.32;2.05;;;20.40;71.50;;;;;;5129679;27;20057;-66
2022/10/02 11:51:17;;;;;;;10.15;2.47;;;19.50;72.30;;;;;;5147427;27;20777;-70
2022/10/02 11:53:49;;;;;;;8.40;2.20;;;19.10;76.60;;;;;;5059159;28;20090;-67
2022/10/02 11:56:59;;;;;;;8.35;2.15;;;18.80;80.90;;;;;;5059202;28;20151;-67
2022/10/02 11:59:56;;;;;;;8.82;2.10;;;20.40;73.20;;;;;;5116762;27;20087;-65
2022/10/02 12:02:33;;;;;;;11.63;2.42;;;20.80;68.80;;;;;;5122141;27;20310;-66
2022/10/02 12:05:36;;;;;;;8.70;2.03;;;19.80;70.50;;;;;;5121256;27;20111;-65
2022/10/02 12:08:08;;;;;;;8.82;2.03;;;19.00;75.30;;;;;;5117584;27;20062;-65
2022/10/02 12:11:05;;;;;;;11.02;2.30;;;18.70;77.30;;;;;;5137298;27;20046;-66
2022/10/02 12:13:46;;;;;;;10.33;2.10;;;18.20;80.20;;;;;;5088538;27;20122;-66
2022/10/02 12:16:26;;;;;;;7.25;2.00;;;17.50;83.20;;;;;;5136033;27;20038;-65
2022/10/02 12:19:21;;;;;;;11.05;2.38;;;17.40;85.30;;;;;;5124427;27;20077;-65
2022/10/02 12:28:18;;;;;;;10.45;2.20;;;16.70;89.00;;;;;;5143786;27;20074;-65
2022/10/02 12:31:01;;;;;;;12.15;2.53;;;16.40;90.30;;;;;;5127090;27;20053;-66
2022/10/02 12:33:59;;;;;;;11.38;2.38;;;16.30;90.80;;;;;;5109851;27;20058;-65
2022/10/02 12:36:32;;;;;;;;;;;16.20;91.40;;;;;;5129070;27;20369;-65
2022/10/02 12:39:29;;;;;;;10.30;2.40;;;16.20;92.00;;;;;;5120298;27;19918;-65
2022/10/02 12:42:25;;;;;;;14.98;2.53;;;16.10;92.20;;;;;;5137301;27;20031;-64
2022/10/02 12:45:01;;;;;;;10.75;2.00;;;16.10;92.10;;;;;;5136841;27;20046;-66
2022/10/02 12:47:52;;;;;;;10.13;2.72;;;16.00;92.10;;;;;;5119502;27;20049;-65
2022/10/02 12:50:28;;;;;;;7.72;2.00;;;15.90;92.90;;;;;;5100918;28;20369;-65
2022/10/02 12:52:54;;;;;;;10.68;2.13;;;16.00;92.80;;;;;;5089223;27;20047;-64
2022/10/02 12:55:41;;;;;;;10.45;2.53;;;15.90;93.30;;;;;;5126988;27;20049;-69
2022/10/02 12:58:10;;;;;;;10.55;1.70;;;15.80;93.60;;;;;;5140408;27;20138;-69
2022/10/02 13:01:17;;;;;;;9.98;2.13;;;15.80;93.50;;;;;;5148563;27;20132;-70
2022/10/02 13:04:21;;;;;;;8.75;1.80;;;16.00;92.90;;;;;;5126080;27;20054;-71
2022/10/02 13:07:29;;;;;;;7.25;1.75;;;15.80;93.40;;;;;;5145882;27;20045;-71
2022/10/02 13:10:00;;;;;;;;;;;15.70;94.10;;;;;;5044581;28;20044;-71
2022/10/02 13:12:31;;;;;;;7.90;1.67;;;15.60;94.10;;;;;;5030362;28;19989;-71
2022/10/02 13:15:18;;;;;;;5.60;1.50;;;15.50;94.20;;;;;;5080733;27;20126;-71
2022/10/02 13:18:16;;;;;;;6.97;1.98;;;15.50;94.70;;;;;;5111630;27;20129;-71
2022/10/02 13:20:50;;;;;;;7.03;1.58;;;15.60;94.70;;;;;;5103828;27;20059;-71
2022/10/02 13:23:29;;;;;;;5.53;1.80;;;15.70;94.20;;;;;;5107415;27;20045;-71
2022/10/02 13:26:14;;;;;;;4.53;1.30;;;16.50;93.20;;;;;;5122747;27;20039;-71
2022/10/02 13:29:02;;;;;;;7.18;1.98;;;17.00;91.60;;;;;;5120669;27;20062;-72
2022/10/02 13:32:08;;;;;;;7.13;1.53;;;16.80;92.10;;;;;;5127388;27;20046;-71
2022/10/02 13:34:46;;;;;;;5.93;1.58;;;17.00;91.80;;;;;;5091472;27;20046;-70
2022/10/02 13:37:30;;;;;;;8.77;1.80;;;16.90;92.00;;;;;;5123776;27;20046;-71
2022/10/02 13:40:02;;;;;;;10.27;1.60;;;16.80;92.30;;;;;;5121650;27;20042;-71
2022/10/02 13:42:49;;;;;;;6.72;1.75;;;16.60;92.90;;;;;;5116659;27;20403;-70
2022/10/02 13:45:28;;;;;;;7.72;1.98;;;16.50;92.80;;;;;;5140177;27;20039;-70
2022/10/02 13:47:57;;;;;;;10.00;1.73;;;16.40;93.30;;;;;;5106663;27;20480;-71
2022/10/02 13:50:56;;;;;;;9.57;1.80;;;16.30;93.40;;;;;;5084970;28;20050;-70
2022/10/02 13:53:29;;;;;;;;;;;16.00;93.90;;;;;;5109584;27;20038;-71
2022/10/02 13:56:14;;;;;;;7.35;1.60;;;15.90;94.60;;;;;;5107383;28;20013;-71
2022/10/02 13:59:09;;;;;;;7.47;2.00;;;15.90;94.90;;;;;;5132944;27;20115;-71
2022/10/02 14:02:02;;;;;;;9.07;2.30;;;15.80;95.40;;;;;;5093368;27;20054;-71